Time;durP1;ratioP1;P1;durP2;ratioP2;P2;SDS_P1;SDS_P2;PMS_P1;PMS_P2;Temp;Humidity;BMP_temperature;BMP_pressure;BME280_temperature;BME280_humidity;BME280_pressure;Samples;Min_cycle;Max_cycle;Signal;HPM_P1;HPM_P2
2021/03/29 00:00:43;;;;;;;16.17;6.53;;;;;;;;;;5138332;28;20446;-55
2021/03/29 00:03:10;;;;;;;19.33;7.93;;;;;;;;;;5137441;28;20559;-54
2021/03/29 00:05:38;;;;;;;12.57;5.87;;;;;;;;;;5138219;28;20446;-57
2021/03/29 00:08:08;;;;;;;14.97;6.57;;;;;;;;;;5132060;28;20454;-54
2021/03/29 00:10:37;;;;;;;11.70;5.43;;;;;;;;;;5138082;28;20452;-58
2021/03/29 00:13:10;;;;;;;9.80;6.30;;;;;;;;;;5126291;28;20446;-44
2021/03/29 00:15:38;;;;;;;13.83;6.13;;;;;;;;;;5137444;28;20607;-54
2021/03/29 00:18:06;;;;;;;13.63;8.17;;;;;;;;;;5137576;28;20462;-53
2021/03/29 00:20:33;;;;;;;102.00;69.00;;;;;;;;;;5138082;28;20466;-55
2021/03/29 00:23:01;;;;;;;45.17;29.23;;;;;;;;;;5120974;28;20501;-54
2021/03/29 00:25:47;;;;;;;65.27;42.90;;;;;;;;;;5137791;28;20419;-57
2021/03/29 00:28:14;;;;;;;28.90;19.70;;;;;;;;;;5116867;28;20439;-51
2021/03/29 00:30:43;;;;;;;20.03;11.33;;;;;;;;;;5117730;28;20451;-51
2021/03/29 00:33:24;;;;;;;12.27;5.20;;;;;;;;;;5116840;28;20459;-50
2021/03/29 00:35:52;;;;;;;11.77;5.80;;;;;;;;;;5118312;28;20458;-58
2021/03/29 00:38:19;;;;;;;17.90;6.10;;;;;;;;;;5126008;27;20446;-53
2021/03/29 00:40:50;;;;;;;15.47;6.23;;;;;;;;;;5137003;28;20481;-50
2021/03/29 00:43:18;;;;;;;12.33;5.73;;;;;;;;;;5151304;27;20507;-54
2021/03/29 00:45:46;;;;;;;11.83;4.53;;;;;;;;;;5135388;28;20471;-58
2021/03/29 00:51:18;;;;;;;13.07;5.40;;;;;;;;;;5116940;28;20402;-51
2021/03/29 00:53:46;;;;;;;17.43;5.90;;;;;;;;;;5119664;27;20498;-56
2021/03/29 00:56:19;;;;;;;15.03;5.33;;;;;;;;;;5137131;28;20446;-55
2021/03/29 00:58:50;;;;;;;13.33;5.60;;;;;;;;;;5135210;28;20591;-49
2021/03/29 01:01:18;;;;;;;13.23;4.93;;;;;;;;;;5136510;28;20446;-52
2021/03/29 01:03:52;;;;;;;12.40;5.57;;;;;;;;;;5136771;28;20474;-55
2021/03/29 01:06:19;;;;;;;11.83;7.03;;;;;;;;;;5137065;28;20446;-55
2021/03/29 01:08:50;;;;;;;12.70;5.50;;;;;;;;;;5136691;28;20459;-54
2021/03/29 01:11:23;;;;;;;11.43;5.00;;;;;;;;;;5136523;28;20764;-56
2021/03/29 01:13:52;;;;;;;22.90;8.10;;;;;;;;;;5135654;28;20468;-56
2021/03/29 01:16:20;;;;;;;15.93;6.83;;;;;;;;;;5137143;28;20446;-51
2021/03/29 01:19:11;;;;;;;14.50;6.97;;;;;;;;;;5135045;28;20464;-52
2021/03/29 01:21:41;;;;;;;11.50;5.57;;;;;;;;;;5134687;28;20504;-56
2021/03/29 01:24:11;;;;;;;11.37;6.13;;;;;;;;;;5136022;28;20588;-55
2021/03/29 01:26:40;;;;;;;12.27;5.73;;;;;;;;;;5135288;28;20458;-48
2021/03/29 01:29:07;;;;;;;14.37;5.53;;;;;;;;;;5135924;28;20928;-52
2021/03/29 01:31:36;;;;;;;11.73;4.37;;;;;;;;;;5128289;28;20439;-55
2021/03/29 01:34:03;;;;;;;15.43;6.50;;;;;;;;;;5115213;28;20437;-50
2021/03/29 01:36:30;;;;;;;13.23;6.20;;;;;;;;;;5122665;28;20487;-54
2021/03/29 01:38:58;;;;;;;9.23;4.87;;;;;;;;;;5136078;28;20521;-54
2021/03/29 01:41:25;;;;;;;13.97;6.23;;;;;;;;;;5134912;28;20462;-50
2021/03/29 01:43:56;;;;;;;15.33;8.50;;;;;;;;;;5136246;28;20493;-57
2021/03/29 01:46:23;;;;;;;26.57;14.93;;;;;;;;;;5135973;28;20478;-53
2021/03/29 01:48:50;;;;;;;20.67;12.67;;;;;;;;;;5135997;28;20443;-56
2021/03/29 01:51:18;;;;;;;14.20;9.60;;;;;;;;;;5136292;28;20609;-52
2021/03/29 01:53:45;;;;;;;23.97;7.60;;;;;;;;;;5135539;28;20486;-61
2021/03/29 01:56:12;;;;;;;27.53;12.10;;;;;;;;;;5115678;28;20455;-58
2021/03/29 01:58:44;;;;;;;17.58;6.22;;;;;;;;;;5118281;28;20458;-55
2021/03/29 02:01:13;;;;;;;13.68;6.18;;;;;;;;;;5136196;28;20208;-55
2021/03/29 02:03:41;;;;;;;13.80;6.10;;;;;;;;;;5135715;28;20258;-55
2021/03/29 02:06:41;;;;;;;21.25;6.82;;;;;;;;;;5136234;28;20462;-67
2021/03/29 02:09:10;;;;;;;10.30;4.50;;;;;;;;;;5136278;28;20204;-54
2021/03/29 02:11:39;;;;;;;12.82;6.30;;;;;;;;;;5136710;28;20223;-58
2021/03/29 02:14:08;;;;;;;13.60;5.47;;;;;;;;;;5136168;28;20201;-53
2021/03/29 02:16:36;;;;;;;15.93;5.30;;;;;;;;;;5136542;28;20294;-54
2021/03/29 02:19:04;;;;;;;10.17;5.70;;;;;;;;;;5122121;28;20194;-53
2021/03/29 02:21:38;;;;;;;16.83;6.80;;;;;;;;;;5119995;28;20459;-53
2021/03/29 02:24:06;;;;;;;11.07;6.50;;;;;;;;;;5138247;28;20235;-54
2021/03/29 02:26:35;;;;;;;12.13;6.07;;;;;;;;;;5138917;28;20457;-51
2021/03/29 02:29:02;;;;;;;10.33;6.27;;;;;;;;;;5119182;28;20458;-48
2021/03/29 02:31:29;;;;;;;18.25;6.88;;;;;;;;;;5123729;28;20434;-51
2021/03/29 02:33:58;;;;;;;14.88;7.13;;;;;;;;;;5139793;28;20209;-55
2021/03/29 02:36:25;;;;;;;19.33;6.37;;;;;;;;;;5140375;28;20209;-52
2021/03/29 02:38:52;;;;;;;10.23;5.33;;;;;;;;;;5140016;28;20458;-53
2021/03/29 02:44:23;;;;;;;12.43;7.30;;;;;;;;;;5137444;28;20224;-49
2021/03/29 02:46:50;;;;;;;10.68;5.50;;;;;;;;;;5123733;28;20463;-53
2021/03/29 02:49:23;;;;;;;14.73;6.00;;;;;;;;;;5118855;28;20287;-52
2021/03/29 02:51:50;;;;;;;15.63;6.80;;;;;;;;;;5120044;28;20329;-52
2021/03/29 02:54:17;;;;;;;15.15;5.72;;;;;;;;;;5123614;28;20180;-46
2021/03/29 02:56:52;;;;;;;13.90;6.32;;;;;;;;;;5139464;28;20205;-57
2021/03/29 02:59:20;;;;;;;14.20;6.60;;;;;;;;;;5122719;28;20236;-59
2021/03/29 03:01:48;;;;;;;15.23;7.63;;;;;;;;;;5139403;28;20442;-54
2021/03/29 03:04:46;;;;;;;13.82;8.07;;;;;;;;;;5138813;28;20489;-54
2021/03/29 03:07:14;;;;;;;16.63;7.18;;;;;;;;;;5136785;28;20250;-50
2021/03/29 03:09:42;;;;;;;12.63;5.72;;;;;;;;;;5139606;28;20208;-50
2021/03/29 03:12:11;;;;;;;15.30;6.72;;;;;;;;;;5139162;28;20204;-58
2021/03/29 03:14:39;;;;;;;20.37;8.27;;;;;;;;;;5136172;28;20201;-54
2021/03/29 03:17:08;;;;;;;11.73;7.10;;;;;;;;;;5121595;28;20458;-51
2021/03/29 03:19:35;;;;;;;14.77;6.75;;;;;;;;;;5121816;28;20467;-53
2021/03/29 03:22:04;;;;;;;16.98;6.82;;;;;;;;;;5131328;28;20204;-53
2021/03/29 03:24:39;;;;;;;14.67;7.20;;;;;;;;;;5139377;28;20212;-53
2021/03/29 03:27:07;;;;;;;28.90;7.65;;;;;;;;;;5137473;28;20504;-52
2021/03/29 03:29:38;;;;;;;17.63;6.60;;;;;;;;;;5138041;28;20212;-57
2021/03/29 03:32:40;;;;;;;15.40;5.80;;;;;;;;;;5138975;28;20201;-50
2021/03/29 03:35:27;;;;;;;13.75;6.57;;;;;;;;;;5137006;28;20216;-57
2021/03/29 03:37:58;;;;;;;12.23;5.80;;;;;;;;;;5138822;28;20208;-54
2021/03/29 03:40:26;;;;;;;14.30;6.50;;;;;;;;;;5138663;28;20441;-49
2021/03/29 03:42:55;;;;;;;16.23;6.25;;;;;;;;;;5138373;28;20508;-49
2021/03/29 03:48:29;;;;;;;12.02;5.93;;;;;;;;;;5136199;28;20461;-53
2021/03/29 03:50:59;;;;;;;15.60;6.67;;;;;;;;;;5137225;28;20224;-52
2021/03/29 03:53:26;;;;;;;18.03;7.53;;;;;;;;;;5137680;28;20558;-54
2021/03/29 03:55:54;;;;;;;19.53;6.77;;;;;;;;;;5137739;28;20460;-56
2021/03/29 03:58:32;;;;;;;17.40;8.43;;;;;;;;;;5133007;28;20463;-49
2021/03/29 04:01:01;;;;;;;15.27;7.00;;;;;;;;;;5137331;28;20216;-56
2021/03/29 04:03:28;;;;;;;13.70;8.15;;;;;;;;;;5136611;28;20248;-55
2021/03/29 04:06:21;;;;;;;13.65;6.60;;;;;;;;;;5137111;28;20220;-51
2021/03/29 04:08:48;;;;;;;15.15;7.38;;;;;;;;;;5134673;28;20223;-53
2021/03/29 04:11:16;;;;;;;14.68;6.60;;;;;;;;;;5136977;28;20226;-53
2021/03/29 04:13:43;;;;;;;18.00;6.50;;;;;;;;;;5137692;28;20201;-52
2021/03/29 04:16:10;;;;;;;12.65;6.00;;;;;;;;;;5137748;28;20204;-56
2021/03/29 04:18:37;;;;;;;14.45;7.10;;;;;;;;;;5137495;28;20188;-57
2021/03/29 04:21:19;;;;;;;15.03;6.40;;;;;;;;;;5137563;28;20197;-54
2021/03/29 04:23:45;;;;;;;16.25;7.10;;;;;;;;;;5137129;28;20470;-54
2021/03/29 04:26:15;;;;;;;13.77;7.40;;;;;;;;;;5137574;28;20208;-58
2021/03/29 04:28:43;;;;;;;18.15;6.90;;;;;;;;;;5137293;28;20205;-48
2021/03/29 04:31:09;;;;;;;14.20;6.50;;;;;;;;;;5119651;28;20189;-54
2021/03/29 04:33:36;;;;;;;17.20;7.27;;;;;;;;;;5137153;28;20218;-58
2021/03/29 04:36:16;;;;;;;18.10;6.57;;;;;;;;;;5116655;28;20440;-55
2021/03/29 04:38:43;;;;;;;20.27;7.63;;;;;;;;;;5121715;28;20465;-58
2021/03/29 04:41:10;;;;;;;17.02;7.55;;;;;;;;;;5136599;28;20188;-53
2021/03/29 04:43:38;;;;;;;16.17;8.05;;;;;;;;;;5136428;28;20258;-55
2021/03/29 04:46:08;;;;;;;31.20;7.67;;;;;;;;;;5134584;28;20224;-58
2021/03/29 04:48:36;;;;;;;16.45;7.20;;;;;;;;;;5136612;28;20457;-55
2021/03/29 04:51:10;;;;;;;21.88;7.20;;;;;;;;;;5136553;28;20215;-53
2021/03/29 04:53:37;;;;;;;14.77;6.35;;;;;;;;;;5136799;28;20216;-50
2021/03/29 04:56:09;;;;;;;14.05;7.00;;;;;;;;;;5136517;28;20223;-55
2021/03/29 04:58:38;;;;;;;15.18;6.85;;;;;;;;;;5135775;28;20259;-58
2021/03/29 05:01:06;;;;;;;15.38;7.35;;;;;;;;;;5135206;28;20818;-57
2021/03/29 05:03:34;;;;;;;19.05;8.20;;;;;;;;;;5135734;28;20239;-51
2021/03/29 05:06:01;;;;;;;19.95;6.70;;;;;;;;;;5129678;28;20233;-55
2021/03/29 05:08:28;;;;;;;29.05;6.70;;;;;;;;;;5116362;28;20217;-58
2021/03/29 05:11:07;;;;;;;20.60;7.53;;;;;;;;;;5115361;28;20221;-53
2021/03/29 05:13:34;;;;;;;19.10;7.07;;;;;;;;;;5119524;28;20196;-50
2021/03/29 05:16:00;;;;;;;17.73;6.23;;;;;;;;;;5125449;28;20231;-52
2021/03/29 05:18:30;;;;;;;19.30;6.72;;;;;;;;;;5115163;28;20458;-56
2021/03/29 05:20:57;;;;;;;18.55;7.03;;;;;;;;;;5129209;28;20193;-54
2021/03/29 05:23:24;;;;;;;14.32;4.97;;;;;;;;;;5135696;28;20247;-54
2021/03/29 05:25:51;;;;;;;14.32;5.90;;;;;;;;;;5119971;28;20197;-57
2021/03/29 05:28:17;;;;;;;18.73;5.82;;;;;;;;;;5119324;28;20180;-58
2021/03/29 05:31:06;;;;;;;21.17;7.72;;;;;;;;;;5133532;28;20213;-56
2021/03/29 05:33:41;;;;;;;20.50;7.22;;;;;;;;;;5133189;28;20197;-53
2021/03/29 05:36:12;;;;;;;14.57;6.68;;;;;;;;;;5135529;28;20290;-57
2021/03/29 05:38:42;;;;;;;19.45;7.78;;;;;;;;;;5134749;28;20248;-56
2021/03/29 05:41:10;;;;;;;25.95;6.82;;;;;;;;;;5133734;28;20244;-48
2021/03/29 05:43:38;;;;;;;11.25;6.10;;;;;;;;;;5134347;28;20225;-59
2021/03/29 05:46:16;;;;;;;11.65;5.80;;;;;;;;;;5144481;28;20204;-53
2021/03/29 05:48:44;;;;;;;9.57;5.60;;;;;;;;;;5125081;28;20197;-49
2021/03/29 05:51:11;;;;;;;19.85;5.13;;;;;;;;;;5120095;28;20201;-55
2021/03/29 05:53:47;;;;;;;16.27;6.30;;;;;;;;;;5136973;28;20211;-55
2021/03/29 05:56:14;;;;;;;18.15;6.90;;;;;;;;;;5136962;28;20222;-58
2021/03/29 05:58:45;;;;;;;17.88;6.70;;;;;;;;;;5138677;27;20211;-57
2021/03/29 06:01:13;;;;;;;13.57;6.18;;;;;;;;;;5138224;28;20203;-52
2021/03/29 06:03:51;;;;;;;15.43;6.67;;;;;;;;;;5123204;28;20209;-49
2021/03/29 06:06:20;;;;;;;13.70;5.17;;;;;;;;;;5123999;28;20446;-55
2021/03/29 06:08:48;;;;;;;17.20;5.43;;;;;;;;;;5138262;28;20453;-51
2021/03/29 06:11:26;;;;;;;18.57;7.57;;;;;;;;;;5138602;28;20469;-49
2021/03/29 06:14:22;;;;;;;18.53;7.20;;;;;;;;;;5138947;28;20464;-56
2021/03/29 06:16:53;;;;;;;21.47;5.80;;;;;;;;;;5120195;28;20498;-54
2021/03/29 06:19:38;;;;;;;17.83;5.83;;;;;;;;;;5119046;28;20423;-54
2021/03/29 06:22:14;;;;;;;13.03;5.33;;;;;;;;;;5137237;28;20433;-59
2021/03/29 06:25:09;;;;;;;12.70;5.77;;;;;;;;;;5137494;28;20477;-52
2021/03/29 06:27:52;;;;;;;10.40;5.13;;;;;;;;;;5139148;28;20470;-56
2021/03/29 06:30:28;;;;;;;16.50;5.40;;;;;;;;;;5135558;28;20454;-57
2021/03/29 06:33:03;;;;;;;17.77;6.30;;;;;;;;;;5137627;28;20446;-57
2021/03/29 06:35:31;;;;;;;16.10;5.77;;;;;;;;;;5138727;28;20453;-52
2021/03/29 06:38:17;;;;;;;10.87;5.73;;;;;;;;;;5138036;28;20458;-53
2021/03/29 06:40:53;;;;;;;13.53;5.87;;;;;;;;;;5136344;28;20450;-55
2021/03/29 06:43:23;;;;;;;11.10;6.00;;;;;;;;;;5137694;28;20481;-55
2021/03/29 06:45:50;;;;;;;11.57;4.30;;;;;;;;;;5137553;28;20466;-56
2021/03/29 06:48:18;;;;;;;14.87;5.30;;;;;;;;;;5136357;28;20581;-52
2021/03/29 06:50:45;;;;;;;17.73;5.27;;;;;;;;;;5137023;28;20495;-54
2021/03/29 06:53:11;;;;;;;18.30;6.30;;;;;;;;;;5135549;28;20555;-54
2021/03/29 06:55:40;;;;;;;18.73;7.10;;;;;;;;;;5137587;28;20438;-60
2021/03/29 06:58:15;;;;;;;16.67;5.87;;;;;;;;;;5137977;28;20438;-56
2021/03/29 07:00:42;;;;;;;45.07;11.57;;;;;;;;;;5126560;28;20478;-48
2021/03/29 07:03:12;;;;;;;17.37;7.20;;;;;;;;;;5135080;28;20489;-53
2021/03/29 07:05:39;;;;;;;15.37;5.73;;;;;;;;;;5134019;28;20446;-55
2021/03/29 07:08:07;;;;;;;12.60;5.90;;;;;;;;;;5136919;28;20454;-53
2021/03/29 07:10:34;;;;;;;14.60;5.53;;;;;;;;;;5137068;28;20675;-58
2021/03/29 07:13:05;;;;;;;9.90;4.60;;;;;;;;;;5137599;28;20423;-54
2021/03/29 07:15:41;;;;;;;14.67;5.13;;;;;;;;;;5137137;28;20474;-56
2021/03/29 07:20:59;;;;;;;14.03;4.33;;;;;;;;;;5134421;28;20519;-56
2021/03/29 07:23:31;;;;;;;7.40;4.30;;;;;;;;;;5137451;28;20470;-53
2021/03/29 07:25:59;;;;;;;13.60;4.73;;;;;;;;;;5125865;28;20466;-57
2021/03/29 07:28:29;;;;;;;14.70;5.63;;;;;;;;;;5131140;28;20530;-56
2021/03/29 07:31:00;;;;;;;15.83;5.13;;;;;;;;;;5120015;28;20558;-56
2021/03/29 07:33:48;;;;;;;13.90;4.93;;;;;;;;;;5135899;28;20462;-54
2021/03/29 07:36:38;;;;;;;7.33;4.20;;;;;;;;;;5137351;28;20450;-54
2021/03/29 07:39:05;;;;;;;18.63;5.10;;;;;;;;;;5135303;27;20454;-56
2021/03/29 07:41:33;;;;;;;11.17;4.33;;;;;;;;;;5157204;27;20735;-57
2021/03/29 07:44:15;;;;;;;10.33;4.03;;;;;;;;;;5156549;27;20473;-53
2021/03/29 07:46:43;;;;;;;7.77;4.00;;;;;;;;;;5116405;28;20443;-55
2021/03/29 07:49:28;;;;;;;8.30;3.90;;;;;;;;;;5116138;28;20455;-53
2021/03/29 07:52:12;;;;;;;6.13;4.00;;;;;;;;;;5126513;28;20442;-53
2021/03/29 07:55:02;;;;;;;10.27;4.30;;;;;;;;;;5135153;28;20450;-55
2021/03/29 07:58:13;;;;;;;16.07;5.20;;;;;;;;;;5111769;28;20477;-56
2021/03/29 08:00:50;;;;;;;10.13;4.03;;;;;;;;;;5116849;28;20474;-54
2021/03/29 08:03:36;;;;;;;18.77;6.03;;;;;;;;;;5135789;28;20520;-57
2021/03/29 08:06:29;;;;;;;13.43;4.57;;;;;;;;;;5128835;28;20463;-52
2021/03/29 08:08:56;;;;;;;29.53;4.70;;;;;;;;;;5114520;28;20458;-57
2021/03/29 08:11:50;;;;;;;14.23;4.20;;;;;;;;;;5136780;28;20438;-59
2021/03/29 08:14:28;;;;;;;14.57;4.40;;;;;;;;;;5136489;28;20507;-57
2021/03/29 08:16:57;;;;;;;18.20;6.07;;;;;;;;;;5125908;28;20458;-57
2021/03/29 08:19:25;;;;;;;15.47;5.80;;;;;;;;;;5135355;28;20474;-58
2021/03/29 08:21:54;;;;;;;14.40;4.73;;;;;;;;;;5118022;28;20589;-55
2021/03/29 08:24:25;;;;;;;11.00;4.23;;;;;;;;;;5136359;28;20500;-57
2021/03/29 08:27:02;;;;;;;12.33;4.07;;;;;;;;;;5135430;28;20514;-58
2021/03/29 08:29:45;;;;;;;10.30;4.07;;;;;;;;;;5115757;28;20459;-59
2021/03/29 08:32:18;;;;;;;9.50;4.53;;;;;;;;;;5122070;28;20438;-60
2021/03/29 08:37:50;;;;;;;6.60;3.10;;;;;;;;;;5136491;28;20643;-60
2021/03/29 08:40:20;;;;;;;9.10;4.77;;;;;;;;;;5135377;28;20473;-52
2021/03/29 08:43:16;;;;;;;6.27;3.30;;;;;;;;;;5136290;28;20458;-55
2021/03/29 08:45:46;;;;;;;9.37;4.73;;;;;;;;;;5135591;28;20462;-58
2021/03/29 08:48:16;;;;;;;8.60;4.20;;;;;;;;;;5135609;28;20439;-55
2021/03/29 08:50:47;;;;;;;15.53;5.07;;;;;;;;;;5136276;28;20501;-58
2021/03/29 08:53:15;;;;;;;13.47;4.30;;;;;;;;;;5134722;28;20993;-54
2021/03/29 08:55:50;;;;;;;15.23;4.33;;;;;;;;;;5136109;28;20455;-60
2021/03/29 08:58:19;;;;;;;11.70;4.23;;;;;;;;;;5135228;28;20437;-55
2021/03/29 09:00:50;;;;;;;11.43;4.37;;;;;;;;;;5130489;28;20474;-55
2021/03/29 09:03:42;;;;;;;11.43;4.80;;;;;;;;;;5134856;28;20790;-60
2021/03/29 09:06:16;;;;;;;7.10;4.03;;;;;;;;;;5135269;28;20458;-53
2021/03/29 09:08:43;;;;;;;12.97;3.70;;;;;;;;;;5134925;28;20573;-53
2021/03/29 09:11:16;;;;;;;12.10;3.80;;;;;;;;;;5135503;28;20462;-52
2021/03/29 09:13:48;;;;;;;10.43;3.60;;;;;;;;;;5135046;28;20499;-54
2021/03/29 09:16:15;;;;;;;8.87;3.37;;;;;;;;;;5132398;28;20481;-56
2021/03/29 09:18:47;;;;;;;9.03;3.63;;;;;;;;;;5135305;28;20465;-55
2021/03/29 09:21:23;;;;;;;11.97;4.00;;;;;;;;;;5094230;28;20566;-53
2021/03/29 09:23:54;;;;;;;14.80;5.87;;;;;;;;;;5093319;28;20487;-50
2021/03/29 09:26:29;;;;;;;5.93;2.80;;;;;;;;;;5093076;28;20463;-55
2021/03/29 09:28:56;;;;;;;12.00;3.50;;;;;;;;;;5102754;28;20451;-55
2021/03/29 09:31:25;;;;;;;8.40;3.27;;;;;;;;;;5113732;28;20446;-54
2021/03/29 09:33:54;;;;;;;8.87;3.03;;;;;;;;;;5112106;28;20524;-57
2021/03/29 09:36:26;;;;;;;11.70;2.80;;;;;;;;;;5094649;28;20448;-55
2021/03/29 09:38:56;;;;;;;14.20;3.13;;;;;;;;;;5094140;28;20503;-52
2021/03/29 09:41:36;;;;;;;14.67;2.70;;;;;;;;;;5094849;28;20467;-56
2021/03/29 09:44:12;;;;;;;9.13;2.73;;;;;;;;;;5096134;28;20511;-56
2021/03/29 09:46:46;;;;;;;8.90;2.37;;;;;;;;;;5090627;28;20448;-51
2021/03/29 09:49:32;;;;;;;6.40;1.97;;;;;;;;;;5094656;28;20455;-54
2021/03/29 09:52:17;;;;;;;10.10;2.77;;;;;;;;;;5114894;28;20500;-55
2021/03/29 09:55:09;;;;;;;4.37;2.23;;;;;;;;;;5132955;28;20463;-51
2021/03/29 09:57:47;;;;;;;7.20;2.00;;;;;;;;;;5133669;28;20442;-53
2021/03/29 10:00:50;;;;;;;5.53;1.83;;;;;;;;;;5135117;28;20481;-54
2021/03/29 10:03:22;;;;;;;4.93;1.87;;;;;;;;;;5119881;28;20497;-50
2021/03/29 10:05:49;;;;;;;5.23;1.50;;;;;;;;;;5129543;28;20491;-57
2021/03/29 10:08:30;;;;;;;7.63;2.20;;;;;;;;;;5116202;28;20435;-56
2021/03/29 10:11:05;;;;;;;6.80;1.83;;;;;;;;;;5123651;28;20453;-55
2021/03/29 10:13:34;;;;;;;5.50;1.87;;;;;;;;;;5132881;28;20469;-55
2021/03/29 10:16:16;;;;;;;10.73;5.10;;;;;;;;;;5132968;28;20478;-56
2021/03/29 10:18:43;;;;;;;6.30;2.63;;;;;;;;;;5120697;28;20462;-54
2021/03/29 10:21:11;;;;;;;5.10;1.97;;;;;;;;;;5123202;28;20678;-59
2021/03/29 10:23:41;;;;;;;5.07;1.80;;;;;;;;;;5124821;28;20466;-55
2021/03/29 10:26:19;;;;;;;5.43;1.97;;;;;;;;;;5128560;28;20851;-58
2021/03/29 10:29:01;;;;;;;5.87;1.73;;;;;;;;;;5122404;28;20454;-56
2021/03/29 10:31:33;;;;;;;5.47;1.80;;;;;;;;;;5127864;28;21042;-60
2021/03/29 10:34:16;;;;;;;6.00;1.80;;;;;;;;;;5123515;28;20465;-59
2021/03/29 10:36:43;;;;;;;5.20;1.60;;;;;;;;;;5127324;28;20458;-59
2021/03/29 10:39:28;;;;;;;5.53;1.77;;;;;;;;;;5121421;28;20462;-55
2021/03/29 10:41:55;;;;;;;5.00;1.67;;;;;;;;;;5135725;28;20446;-59
2021/03/29 10:44:23;;;;;;;4.70;1.70;;;;;;;;;;5136999;28;20478;-54
2021/03/29 10:46:57;;;;;;;21.67;1.97;;;;;;;;;;5134398;28;20469;-53
2021/03/29 10:49:25;;;;;;;6.53;1.80;;;;;;;;;;5136706;28;20473;-50
2021/03/29 10:52:05;;;;;;;15.70;2.10;;;;;;;;;;5137588;28;20462;-49
2021/03/29 10:54:53;;;;;;;9.50;2.40;;;;;;;;;;5136158;28;20442;-57
2021/03/29 10:57:20;;;;;;;2.60;1.40;;;;;;;;;;5127428;28;20506;-54
2021/03/29 10:59:48;;;;;;;7.37;1.90;;;;;;;;;;5135159;28;20618;-54
2021/03/29 11:02:16;;;;;;;10.80;2.50;;;;;;;;;;5133809;27;20442;-55
2021/03/29 11:04:43;;;;;;;5.70;1.90;;;;;;;;;;5133351;28;20497;-58
2021/03/29 11:07:14;;;;;;;7.17;2.33;;;;;;;;;;5136206;28;21126;-61
2021/03/29 11:10:07;;;;;;;4.43;2.03;;;;;;;;;;5134917;28;20470;-47
2021/03/29 11:12:36;;;;;;;5.07;2.13;;;;;;;;;;5134356;28;20454;-55
2021/03/29 11:15:16;;;;;;;4.70;2.00;;;;;;;;;;5135891;28;20579;-54
2021/03/29 11:17:44;;;;;;;7.13;2.03;;;;;;;;;;5136391;28;20441;-57
2021/03/29 11:20:16;;;;;;;9.90;2.17;;;;;;;;;;5135379;28;20521;-55
2021/03/29 11:22:47;;;;;;;4.60;1.97;;;;;;;;;;5135234;28;20697;-54
2021/03/29 11:25:15;;;;;;;4.57;1.77;;;;;;;;;;5135063;28;20442;-59
2021/03/29 11:27:42;;;;;;;6.10;1.87;;;;;;;;;;5137018;27;20439;-58
2021/03/29 11:30:13;;;;;;;5.00;1.90;;;;;;;;;;5135820;28;20434;-51
2021/03/29 11:32:40;;;;;;;11.50;3.50;;;;;;;;;;5135291;28;20458;-55
2021/03/29 11:35:09;;;;;;;5.10;1.60;;;;;;;;;;5135941;28;20447;-58
2021/03/29 11:37:36;;;;;;;5.70;2.10;;;;;;;;;;5138806;27;20437;-59
2021/03/29 11:40:05;;;;;;;10.10;2.80;;;;;;;;;;5155737;27;20442;-57
2021/03/29 11:42:47;;;;;;;4.20;1.90;;;;;;;;;;5132778;28;20451;-59
2021/03/29 11:45:20;;;;;;;5.37;2.10;;;;;;;;;;5134459;28;20461;-61
2021/03/29 11:47:49;;;;;;;6.80;2.20;;;;;;;;;;5123627;28;20470;-55
2021/03/29 11:50:16;;;;;;;13.60;3.43;;;;;;;;;;5124562;28;20454;-60
2021/03/29 11:52:49;;;;;;;6.47;2.50;;;;;;;;;;5133842;28;20520;-57
2021/03/29 11:55:29;;;;;;;16.93;2.60;;;;;;;;;;5135042;28;20438;-56
2021/03/29 11:57:56;;;;;;;7.63;2.40;;;;;;;;;;5135061;28;20489;-58
2021/03/29 12:00:30;;;;;;;4.03;1.23;;;;;;;;;;5136569;27;20478;-52
2021/03/29 12:03:10;;;;;;;4.63;2.13;;;;;;;;;;5153626;27;20616;-54
2021/03/29 12:05:38;;;;;;;4.10;1.60;;;;;;;;;;5140152;27;20450;-57
2021/03/29 12:08:13;;;;;;;5.47;1.80;;;;;;;;;;5133880;28;20447;-57
2021/03/29 12:13:44;;;;;;;5.17;1.90;;;;;;;;;;5134100;28;20429;-58
2021/03/29 12:16:12;;;;;;;8.50;2.30;;;;;;;;;;5134733;28;20513;-55
2021/03/29 12:18:43;;;;;;;3.53;2.00;;;;;;;;;;5133805;28;20465;-54
2021/03/29 12:21:20;;;;;;;5.77;1.80;;;;;;;;;;5134084;28;20442;-54
2021/03/29 12:23:48;;;;;;;3.10;1.50;;;;;;;;;;5134732;28;20474;-54
2021/03/29 12:26:15;;;;;;;7.43;2.50;;;;;;;;;;5134380;28;20451;-61
2021/03/29 12:28:45;;;;;;;9.10;2.10;;;;;;;;;;5133144;28;20510;-58
2021/03/29 12:31:13;;;;;;;8.20;2.07;;;;;;;;;;5131072;27;21120;-51
2021/03/29 12:33:42;;;;;;;7.83;2.50;;;;;;;;;;5134676;28;20502;-57
2021/03/29 12:36:27;;;;;;;6.00;2.07;;;;;;;;;;5134489;28;20474;-54
2021/03/29 12:39:06;;;;;;;10.23;1.90;;;;;;;;;;5103029;28;20459;-59
2021/03/29 12:41:52;;;;;;;7.33;2.37;;;;;;;;;;5127708;28;20485;-58
2021/03/29 12:44:20;;;;;;;4.30;1.60;;;;;;;;;;5133929;28;20569;-57
2021/03/29 12:46:56;;;;;;;5.30;1.73;;;;;;;;;;5133490;28;20522;-57
2021/03/29 12:49:23;;;;;;;5.57;2.50;;;;;;;;;;5134348;28;20489;-57
2021/03/29 12:51:54;;;;;;;5.67;2.33;;;;;;;;;;5133976;28;20452;-60
2021/03/29 12:54:47;;;;;;;8.20;2.40;;;;;;;;;;5133603;28;20481;-63
2021/03/29 12:57:18;;;;;;;8.13;2.90;;;;;;;;;;5134494;28;20474;-54
2021/03/29 12:59:45;;;;;;;11.63;2.30;;;;;;;;;;5134183;28;20478;-60
2021/03/29 13:02:48;;;;;;;5.23;1.97;;;;;;;;;;5133119;28;20617;-56
2021/03/29 13:05:19;;;;;;;5.67;1.90;;;;;;;;;;5130289;28;20493;-57
2021/03/29 13:07:53;;;;;;;6.93;2.93;;;;;;;;;;5133352;28;20438;-57
2021/03/29 13:13:02;;;;;;;6.43;2.60;;;;;;;;;;5131719;28;20488;-54
2021/03/29 13:15:40;;;;;;;11.63;2.30;;;;;;;;;;5116474;28;20438;-56
2021/03/29 13:18:12;;;;;;;6.43;2.20;;;;;;;;;;5114579;28;20461;-54
2021/03/29 13:20:40;;;;;;;6.30;2.63;;;;;;;;;;5113437;28;20534;-57
2021/03/29 13:23:17;;;;;;;9.00;2.57;;;;;;;;;;5132514;28;20457;-55
2021/03/29 13:25:44;;;;;;;9.63;2.23;;;;;;;;;;5132650;28;20525;-56
2021/03/29 13:28:13;;;;;;;7.00;2.30;;;;;;;;;;5127610;28;20543;-58
2021/03/29 13:33:45;;;;;;;4.77;2.00;;;;;;;;;;5133235;28;20489;-55
2021/03/29 13:36:14;;;;;;;3.70;2.37;;;;;;;;;;5132124;28;20438;-57
2021/03/29 13:38:44;;;;;;;3.70;1.70;;;;;;;;;;5139469;27;20457;-55
2021/03/29 13:41:11;;;;;;;3.50;1.83;;;;;;;;;;5151817;27;20449;-54
2021/03/29 13:43:40;;;;;;;5.23;1.70;;;;;;;;;;5131356;28;20792;-63
2021/03/29 13:46:07;;;;;;;18.40;3.73;;;;;;;;;;5131753;28;20545;-57
2021/03/29 13:48:35;;;;;;;8.03;2.50;;;;;;;;;;5132597;28;20441;-57
2021/03/29 13:51:15;;;;;;;4.43;2.17;;;;;;;;;;5132042;28;20501;-59
2021/03/29 13:53:54;;;;;;;7.43;2.87;;;;;;;;;;5127010;28;20459;-54
2021/03/29 13:56:23;;;;;;;7.00;3.00;;;;;;;;;;5132921;28;20457;-56
2021/03/29 13:58:50;;;;;;;5.23;2.60;;;;;;;;;;5131397;28;20466;-54
2021/03/29 14:01:17;;;;;;;6.40;2.57;;;;;;;;;;5131288;28;20685;-56
2021/03/29 14:03:45;;;;;;;7.30;2.37;;;;;;;;;;5130394;28;20493;-56
2021/03/29 14:06:13;;;;;;;5.70;2.20;;;;;;;;;;5131728;28;20485;-53
2021/03/29 14:08:40;;;;;;;7.03;2.73;;;;;;;;;;5132619;28;20457;-50
2021/03/29 14:11:12;;;;;;;6.27;2.23;;;;;;;;;;5132065;28;20450;-55
2021/03/29 14:13:41;;;;;;;5.63;1.90;;;;;;;;;;5132730;28;20442;-53
2021/03/29 14:16:17;;;;;;;20.30;4.03;;;;;;;;;;5136544;28;20849;-59
2021/03/29 14:18:47;;;;;;;6.90;2.53;;;;;;;;;;5132850;28;20489;-55
2021/03/29 14:21:30;;;;;;;7.67;2.60;;;;;;;;;;5137231;28;20464;-58
2021/03/29 14:23:57;;;;;;;5.83;2.73;;;;;;;;;;5136697;28;20511;-54
2021/03/29 14:26:24;;;;;;;6.80;2.10;;;;;;;;;;5136415;28;20466;-54
2021/03/29 14:28:59;;;;;;;4.37;1.60;;;;;;;;;;5135963;28;20458;-54
2021/03/29 14:31:26;;;;;;;13.97;2.50;;;;;;;;;;5136329;28;20457;-59
2021/03/29 14:36:52;;;;;;;6.83;2.67;;;;;;;;;;5134485;27;20450;-55
2021/03/29 14:39:32;;;;;;;4.87;2.57;;;;;;;;;;5136821;28;20438;-55
2021/03/29 14:42:40;;;;;;;6.90;2.63;;;;;;;;;;5135141;28;20445;-61
2021/03/29 14:45:09;;;;;;;3.40;1.67;;;;;;;;;;5116150;28;20483;-60
2021/03/29 14:47:36;;;;;;;5.07;1.70;;;;;;;;;;5128438;28;20556;-55
2021/03/29 14:50:19;;;;;;;4.03;1.30;;;;;;;;;;5132484;28;20441;-53
2021/03/29 14:52:47;;;;;;;6.40;2.53;;;;;;;;;;5133221;28;20478;-60
2021/03/29 14:55:15;;;;;;;3.47;2.10;;;;;;;;;;5134893;28;20499;-59
2021/03/29 14:57:42;;;;;;;5.20;3.00;;;;;;;;;;5119107;28;20463;-56
2021/03/29 15:00:11;;;;;;;4.60;2.30;;;;;;;;;;5117303;28;20455;-57
2021/03/29 15:02:43;;;;;;;4.30;2.37;;;;;;;;;;5139020;27;20693;-53
2021/03/29 15:05:22;;;;;;;2.90;1.60;;;;;;;;;;5150665;27;20541;-54
2021/03/29 15:07:50;;;;;;;9.43;2.27;;;;;;;;;;5134809;28;20552;-58
2021/03/29 15:10:18;;;;;;;6.80;3.00;;;;;;;;;;5135043;28;20454;-53
2021/03/29 15:13:07;;;;;;;6.47;2.40;;;;;;;;;;5121163;28;20466;-56
2021/03/29 15:15:40;;;;;;;6.60;2.73;;;;;;;;;;5127936;27;20515;-59
2021/03/29 15:18:47;;;;;;;7.77;2.30;;;;;;;;;;5133203;28;20462;-55
2021/03/29 15:21:22;;;;;;;5.83;2.00;;;;;;;;;;5133593;27;20457;-60
2021/03/29 15:23:58;;;;;;;9.83;2.40;;;;;;;;;;5119543;28;20559;-60
2021/03/29 15:26:26;;;;;;;4.13;2.10;;;;;;;;;;5134820;28;20446;-56
2021/03/29 15:28:53;;;;;;;5.80;1.70;;;;;;;;;;5133443;28;20462;-54
2021/03/29 15:31:34;;;;;;;5.93;1.97;;;;;;;;;;5133107;28;20485;-56
2021/03/29 15:34:01;;;;;;;6.47;2.17;;;;;;;;;;5129591;28;20491;-57